Time,TemperatureF,DewpointF,PressureIn,WindDirection,WindDirectionDegrees,WindSpeedMPH,WindSpeedGustMPH,Humidity,HourlyPrecipIn,Conditions,Clouds,dailyrainin,SoftwareType,DateUTC
2013-09-08 00:03:00,66.6,66.2,29.86,West,270,2.0,4.0,99,0.00,,,0.00,meteohub,2013-09-08 07:03:00,
2013-09-08 00:08:00,66.6,66.2,29.85,West,270,4.0,4.0,99,0.00,,,0.00,meteohub,2013-09-08 07:08:00,
2013-09-08 00:13:00,66.6,66.2,29.86,West,270,2.0,4.0,99,0.00,,,0.00,meteohub,2013-09-08 07:13:00,
2013-09-08 00:18:00,66.6,66.2,29.85,West,270,2.0,4.0,99,0.00,,,0.00,meteohub,2013-09-08 07:18:00,
2013-09-08 00:23:00,66.4,66.0,29.86,West,270,3.0,4.0,99,0.00,,,0.00,meteohub,2013-09-08 07:23:00,
2013-09-08 00:28:00,66.4,66.0,29.85,West,270,2.0,4.0,99,0.00,,,0.00,meteohub,2013-09-08 07:28:00,
2013-09-08 00:33:00,66.6,66.2,29.85,West,270,1.0,3.0,99,0.00,,,0.00,meteohub,2013-09-08 07:33:00,
2013-09-08 00:38:00,66.4,66.0,29.85,West,270,1.0,4.0,99,0.00,,,0.00,meteohub,2013-09-08 07:38:00,
2013-09-08 00:43:00,66.4,66.0,29.85,SE,135,1.0,4.0,99,0.00,,,0.00,meteohub,2013-09-08 07:43:00,
2013-09-08 00:48:00,66.4,66.0,29.86,SE,135,2.0,4.0,99,0.00,,,0.00,meteohub,2013-09-08 07:48:00,
2013-09-08 00:53:00,66.2,65.8,29.86,SE,135,2.0,3.0,99,0.00,,,0.00,meteohub,2013-09-08 07:53:00,
2013-09-08 00:59:00,66.2,65.8,29.85,SE,135,0.0,3.0,99,0.00,,,0.00,meteohub,2013-09-08 07:59:00,
2013-09-08 01:04:00,66.4,66.0,29.85,SE,135,2.0,2.0,99,0.00,,,0.00,meteohub,2013-09-08 08:04:00,
2013-09-08 01:09:00,66.6,66.2,29.85,SE,135,2.0,4.0,99,0.00,,,0.00,meteohub,2013-09-08 08:09:00,
2013-09-08 01:14:00,66.6,66.2,29.85,SE,135,2.0,4.0,99,0.00,,,0.00,meteohub,2013-09-08 08:14:00,
2013-09-08 01:19:00,66.6,66.2,29.85,SE,135,2.0,4.0,99,0.00,,,0.00,meteohub,2013-09-08 08:19:00,
2013-09-08 01:24:00,66.7,66.4,29.85,SE,135,3.0,3.0,99,0.00,,,0.00,meteohub,2013-09-08 08:24:00,
2013-09-08 01:29:00,66.7,66.4,29.85,SE,135,1.0,3.0,99,0.00,,,0.00,meteohub,2013-09-08 08:29:00,
2013-09-08 01:34:00,66.6,66.2,29.85,SE,135,2.0,3.0,99,0.00,,,0.00,meteohub,2013-09-08 08:34:00,
2013-09-08 01:39:00,66.6,66.2,29.85,SE,135,0.0,3.0,99,0.00,,,0.00,meteohub,2013-09-08 08:39:00,
2013-09-08 01:44:00,66.6,66.2,29.85,SE,135,0.0,3.0,99,0.00,,,0.00,meteohub,2013-09-08 08:44:00,
2013-09-08 01:49:00,66.6,66.2,29.85,SE,135,2.0,3.0,99,0.00,,,0.00,meteohub,2013-09-08 08:49:00,
2013-09-08 01:54:00,66.7,66.4,29.85,SE,135,2.0,2.0,99,0.00,,,0.00,meteohub,2013-09-08 08:54:00,
2013-09-08 01:59:00,66.7,66.4,29.84,SE,135,1.0,3.0,99,0.00,,,0.00,meteohub,2013-09-08 08:59:00,
2013-09-08 02:04:00,66.6,66.2,29.84,SE,135,0.0,3.0,99,0.00,,,0.00,meteohub,2013-09-08 09:04:00,
2013-09-08 02:09:00,66.6,66.2,29.84,SE,135,0.0,2.0,99,0.00,,,0.00,meteohub,2013-09-08 09:09:00,
2013-09-08 02:14:00,66.6,66.2,29.84,SE,135,2.0,2.0,99,0.00,,,0.00,meteohub,2013-09-08 09:14:00,
2013-09-08 02:19:00,66.4,66.0,29.84,SE,135,1.0,2.0,99,0.00,,,0.00,meteohub,2013-09-08 09:19:00,
2013-09-08 02:24:00,66.2,65.8,29.85,SE,135,2.0,3.0,99,0.00,,,0.00,meteohub,2013-09-08 09:24:00,
2013-09-08 02:29:00,66.2,65.8,29.84,SE,135,0.0,3.0,99,0.00,,,0.00,meteohub,2013-09-08 09:29:00,
2013-09-08 02:34:00,66.0,65.7,29.84,SE,135,1.0,3.0,99,0.00,,,0.00,meteohub,2013-09-08 09:34:00,
2013-09-08 02:39:00,65.8,65.5,29.84,SE,135,0.0,2.0,99,0.00,,,0.00,meteohub,2013-09-08 09:39:00,
2013-09-08 02:44:00,65.7,65.3,29.83,SE,135,0.0,1.0,99,0.00,,,0.00,meteohub,2013-09-08 09:44:00,
2013-09-08 02:49:00,65.3,64.9,29.84,SE,135,0.0,1.0,99,0.00,,,0.00,meteohub,2013-09-08 09:49:00,
2013-09-08 02:54:00,65.3,64.9,29.83,SE,135,0.0,1.0,99,0.00,,,0.00,meteohub,2013-09-08 09:54:00,
2013-09-08 02:59:00,65.3,64.9,29.83,SE,135,0.0,0.0,99,0.00,,,0.00,meteohub,2013-09-08 09:59:00,
2013-09-08 03:04:00,65.1,64.8,29.83,SE,135,0.0,0.0,99,0.00,,,0.00,meteohub,2013-09-08 10:04:00,
2013-09-08 03:09:00,65.1,64.8,29.83,SE,135,0.0,0.0,99,0.00,,,0.00,meteohub,2013-09-08 10:09:00,
2013-09-08 03:14:00,65.1,64.8,29.83,SE,135,0.0,0.0,99,0.00,,,0.00,meteohub,2013-09-08 10:14:00,
2013-09-08 03:19:00,65.3,64.9,29.83,SE,135,0.0,0.0,99,0.00,,,0.00,meteohub,2013-09-08 10:19:00,
2013-09-08 03:24:00,65.3,64.9,29.83,SE,135,0.0,0.0,99,0.00,,,0.00,meteohub,2013-09-08 10:24:00,
2013-09-08 03:29:00,64.9,64.6,29.84,SE,135,0.0,0.0,99,0.00,,,0.00,meteohub,2013-09-08 10:29:00,
2013-09-08 03:34:00,64.8,64.4,29.83,SE,135,0.0,0.0,99,0.00,,,0.00,meteohub,2013-09-08 10:34:00,
2013-09-08 03:39:00,64.9,64.6,29.83,SE,135,0.0,0.0,99,0.00,,,0.00,meteohub,2013-09-08 10:39:00,
2013-09-08 03:44:00,64.9,64.6,29.83,SE,135,0.0,0.0,99,0.00,,,0.00,meteohub,2013-09-08 10:44:00,
2013-09-08 03:49:00,64.8,64.4,29.83,SE,135,0.0,0.0,99,0.00,,,0.00,meteohub,2013-09-08 10:49:00,
2013-09-08 03:54:00,64.8,64.4,29.83,SE,135,0.0,0.0,99,0.00,,,0.00,meteohub,2013-09-08 10:54:00,
2013-09-08 03:59:00,64.6,64.2,29.83,SE,135,0.0,0.0,99,0.00,,,0.00,meteohub,2013-09-08 10:59:00,
2013-09-08 04:04:00,64.6,64.2,29.83,SE,135,0.0,0.0,99,0.00,,,0.00,meteohub,2013-09-08 11:04:00,
2013-09-08 04:09:00,64.4,64.0,29.83,SE,135,0.0,0.0,99,0.00,,,0.00,meteohub,2013-09-08 11:09:00,
2013-09-08 04:14:00,64.4,64.0,29.83,SE,135,0.0,0.0,99,0.00,,,0.00,meteohub,2013-09-08 11:14:00,
2013-09-08 04:19:00,64.4,64.0,29.83,SE,135,0.0,0.0,99,0.00,,,0.00,meteohub,2013-09-08 11:19:00,
2013-09-08 04:24:00,64.2,63.9,29.83,SE,135,0.0,0.0,99,0.00,,,0.00,meteohub,2013-09-08 11:24:00,
2013-09-08 04:29:00,63.9,63.5,29.83,SE,135,0.0,0.0,99,0.00,,,0.00,meteohub,2013-09-08 11:29:00,
2013-09-08 04:34:00,63.7,63.3,29.83,SE,135,0.0,0.0,99,0.00,,,0.00,meteohub,2013-09-08 11:34:00,
2013-09-08 04:39:00,64.0,63.7,29.83,SE,135,0.0,0.0,99,0.00,,,0.00,meteohub,2013-09-08 11:39:00,
2013-09-08 04:44:00,64.4,64.0,29.83,SE,135,0.0,0.0,99,0.00,,,0.00,meteohub,2013-09-08 11:44:00,
2013-09-08 04:49:00,64.4,64.0,29.83,SE,135,0.0,0.0,99,0.00,,,0.00,meteohub,2013-09-08 11:49:00,
2013-09-08 04:54:00,64.4,64.0,29.83,SE,135,0.0,0.0,99,0.00,,,0.00,meteohub,2013-09-08 11:54:00,
2013-09-08 04:59:00,64.0,63.7,29.83,SE,135,0.0,0.0,99,0.00,,,0.00,meteohub,2013-09-08 11:59:00,
2013-09-08 05:04:00,63.5,63.1,29.83,SE,135,0.0,0.0,99,0.00,,,0.00,meteohub,2013-09-08 12:04:00,
2013-09-08 05:09:00,63.3,63.0,29.83,SE,135,0.0,0.0,99,0.00,,,0.00,meteohub,2013-09-08 12:09:00,
2013-09-08 05:14:00,63.3,63.0,29.83,SE,135,0.0,0.0,99,0.00,,,0.00,meteohub,2013-09-08 12:14:00,
2013-09-08 05:19:00,63.3,63.0,29.83,SE,135,0.0,0.0,99,0.00,,,0.00,meteohub,2013-09-08 12:19:00,
2013-09-08 05:24:00,63.3,63.0,29.83,SE,135,0.0,0.0,99,0.00,,,0.00,meteohub,2013-09-08 12:24:00,
2013-09-08 05:29:00,63.1,62.8,29.83,SE,135,0.0,0.0,99,0.00,,,0.00,meteohub,2013-09-08 12:29:00,
2013-09-08 05:34:00,63.1,62.8,29.83,SE,135,2.0,0.0,99,0.00,,,0.00,meteohub,2013-09-08 12:34:00,
2013-09-08 05:39:00,63.7,63.3,29.83,West,270,2.0,0.0,99,0.00,,,0.00,meteohub,2013-09-08 12:39:00,
2013-09-08 05:44:00,63.9,63.5,29.84,West,270,1.0,2.0,99,0.00,,,0.00,meteohub,2013-09-08 12:44:00,
2013-09-08 05:49:00,63.7,63.3,29.84,West,270,2.0,2.0,99,0.00,,,0.00,meteohub,2013-09-08 12:49:00,
2013-09-08 05:54:00,63.7,63.3,29.84,West,270,2.0,2.0,99,0.00,,,0.00,meteohub,2013-09-08 12:54:00,
2013-09-08 05:59:00,63.5,63.1,29.84,West,270,0.0,3.0,99,0.00,,,0.00,meteohub,2013-09-08 12:59:00,
2013-09-08 06:04:00,63.5,63.1,29.84,West,270,0.0,3.0,99,0.00,,,0.00,meteohub,2013-09-08 13:04:00,
2013-09-08 06:09:00,63.5,63.1,29.84,West,270,1.0,2.0,99,0.00,,,0.00,meteohub,2013-09-08 13:09:00,
2013-09-08 06:14:00,63.5,63.1,29.84,West,270,1.0,2.0,99,0.00,,,0.00,meteohub,2013-09-08 13:14:00,
2013-09-08 06:19:00,63.7,63.3,29.84,West,270,0.0,1.0,99,0.00,,,0.00,meteohub,2013-09-08 13:19:00,
2013-09-08 06:24:00,63.9,63.5,29.84,West,270,0.0,2.0,99,0.00,,,0.00,meteohub,2013-09-08 13:24:00,
2013-09-08 06:29:00,64.0,63.7,29.84,West,270,1.0,2.0,99,0.00,,,0.00,meteohub,2013-09-08 13:29:00,
2013-09-08 06:34:00,63.9,63.5,29.84,West,270,0.0,2.0,99,0.00,,,0.00,meteohub,2013-09-08 13:34:00,
2013-09-08 06:39:00,63.5,63.1,29.84,West,270,0.0,2.0,99,0.00,,,0.00,meteohub,2013-09-08 13:39:00,
2013-09-08 06:44:00,63.3,63.0,29.84,West,270,0.0,2.0,99,0.00,,,0.00,meteohub,2013-09-08 13:44:00,
2013-09-08 06:49:00,63.5,63.1,29.85,West,270,0.0,0.0,99,0.00,,,0.00,meteohub,2013-09-08 13:49:00,
2013-09-08 06:54:00,63.9,63.5,29.85,West,270,0.0,0.0,99,0.00,,,0.00,meteohub,2013-09-08 13:54:00,
2013-09-08 06:58:00,64.8,64.4,29.85,West,270,0.0,0.0,99,0.00,,,0.00,meteohub,2013-09-08 13:58:00,
2013-09-08 07:04:00,66.7,66.4,29.85,West,270,0.0,2.0,99,0.00,,,0.00,meteohub,2013-09-08 14:04:00,
2013-09-08 07:09:00,68.2,67.8,29.85,West,270,0.0,2.0,99,0.00,,,0.00,meteohub,2013-09-08 14:09:00,
2013-09-08 07:13:00,69.4,69.1,29.85,West,270,0.0,2.0,99,0.00,,,0.00,meteohub,2013-09-08 14:13:00,
2013-09-08 07:19:00,69.8,69.4,29.85,West,270,0.0,0.0,99,0.00,,,0.00,meteohub,2013-09-08 14:19:00,
2013-09-08 07:24:00,71.2,70.9,29.86,West,270,0.0,0.0,99,0.00,,,0.00,meteohub,2013-09-08 14:24:00,
2013-09-08 07:29:00,72.3,72.0,29.86,West,270,0.0,0.0,99,0.00,,,0.00,meteohub,2013-09-08 14:29:00,
2013-09-08 07:34:00,74.1,73.2,29.85,West,270,0.0,0.0,97,0.00,,,0.00,meteohub,2013-09-08 14:34:00,
2013-09-08 07:39:00,72.9,71.4,29.85,West,270,0.0,0.0,95,0.00,,,0.00,meteohub,2013-09-08 14:39:00,
2013-09-08 07:44:00,73.6,72.1,29.85,West,270,0.0,0.0,95,0.00,,,0.00,meteohub,2013-09-08 14:44:00,
2013-09-08 07:49:00,75.7,73.6,29.85,West,270,0.0,0.0,93,0.00,,,0.00,meteohub,2013-09-08 14:49:00,
2013-09-08 07:54:00,76.8,72.7,29.85,West,270,2.0,0.0,87,0.00,,,0.00,meteohub,2013-09-08 14:54:00,
2013-09-08 07:59:00,76.3,71.4,29.85,West,270,0.0,2.0,85,0.00,,,0.00,meteohub,2013-09-08 14:59:00,
2013-09-08 08:04:00,75.2,69.3,29.85,West,270,0.0,2.0,82,0.00,,,0.00,meteohub,2013-09-08 15:04:00,
2013-09-08 08:09:00,75.0,69.4,29.86,West,270,0.0,2.0,83,0.00,,,0.00,meteohub,2013-09-08 15:09:00,
2013-09-08 08:14:00,75.7,71.2,29.86,West,270,0.0,1.0,86,0.00,,,0.00,meteohub,2013-09-08 15:14:00,
2013-09-08 08:19:00,78.8,72.9,29.86,West,270,0.0,0.0,82,0.00,,,0.00,meteohub,2013-09-08 15:19:00,
2013-09-08 08:24:00,80.6,72.3,29.86,South,180,2.0,0.0,76,0.00,,,0.00,meteohub,2013-09-08 15:24:00,
2013-09-08 08:29:00,81.3,71.4,29.86,South,180,2.0,2.0,72,0.00,,,0.00,meteohub,2013-09-08 15:29:00,
2013-09-08 08:34:00,82.6,69.6,29.86,SE,135,2.0,2.0,65,0.00,,,0.00,meteohub,2013-09-08 15:34:00,
2013-09-08 08:39:00,82.6,68.7,29.86,SE,135,2.0,2.0,63,0.00,,,0.00,meteohub,2013-09-08 15:39:00,
2013-09-08 08:44:00,82.8,69.8,29.85,SE,135,0.0,2.0,65,0.00,,,0.00,meteohub,2013-09-08 15:44:00,
2013-09-08 08:49:00,83.3,69.4,29.86,SE,135,2.0,2.0,63,0.00,,,0.00,meteohub,2013-09-08 15:49:00,
2013-09-08 08:54:00,84.6,68.7,29.86,East,90,2.0,2.0,59,0.00,,,0.00,meteohub,2013-09-08 15:54:00,
2013-09-08 08:59:00,85.3,68.9,29.85,East,90,4.0,4.0,58,0.00,,,0.00,meteohub,2013-09-08 15:59:00,
2013-09-08 09:04:00,84.7,69.8,29.86,SE,135,1.0,2.0,61,0.00,,,0.00,meteohub,2013-09-08 16:04:00,
2013-09-08 09:09:00,86.2,70.2,29.86,SE,135,2.0,4.0,59,0.00,,,0.00,meteohub,2013-09-08 16:09:00,
2013-09-08 09:14:00,87.6,71.1,29.85,SE,135,2.0,4.0,58,0.00,,,0.00,meteohub,2013-09-08 16:14:00,
2013-09-08 09:19:00,86.7,67.5,29.86,NW,315,2.0,4.0,53,0.00,,,0.00,meteohub,2013-09-08 16:19:00,
2013-09-08 09:24:00,86.2,68.2,29.86,North,0,3.0,3.0,55,0.00,,,0.00,meteohub,2013-09-08 16:24:00,
2013-09-08 09:29:00,87.3,69.1,29.86,North,0,3.0,4.0,55,0.00,,,0.00,meteohub,2013-09-08 16:29:00,
2013-09-08 09:34:00,87.8,68.5,29.86,North,0,3.0,4.0,53,0.00,,,0.00,meteohub,2013-09-08 16:34:00,
2013-09-08 09:39:00,87.3,68.5,29.86,North,0,3.0,4.0,54,0.00,,,0.00,meteohub,2013-09-08 16:39:00,
2013-09-08 09:44:00,86.4,68.7,29.86,NW,315,2.0,3.0,56,0.00,,,0.00,meteohub,2013-09-08 16:44:00,
2013-09-08 09:50:00,86.5,68.4,29.85,North,0,3.0,4.0,55,0.00,,,0.00,meteohub,2013-09-08 16:50:00,
2013-09-08 09:55:00,86.2,68.7,29.86,North,0,2.0,4.0,56,0.00,,,0.00,meteohub,2013-09-08 16:55:00,
2013-09-08 10:00:00,85.8,66.7,29.85,WNW,293,2.0,4.0,53,0.00,,,0.00,meteohub,2013-09-08 17:00:00,
2013-09-08 10:05:00,85.8,67.3,29.85,NW,315,2.0,4.0,54,0.00,,,0.00,meteohub,2013-09-08 17:05:00,
2013-09-08 10:10:00,86.7,68.5,29.86,South,180,3.0,6.0,55,0.00,,,0.00,meteohub,2013-09-08 17:10:00,
2013-09-08 10:15:00,86.0,66.9,29.86,NW,315,4.0,6.0,53,0.00,,,0.00,meteohub,2013-09-08 17:15:00,
2013-09-08 10:20:00,84.0,67.1,29.86,NW,315,4.0,6.0,57,0.00,,,0.00,meteohub,2013-09-08 17:20:00,
2013-09-08 10:25:00,85.6,68.7,29.85,West,270,4.0,6.0,57,0.00,,,0.00,meteohub,2013-09-08 17:25:00,
2013-09-08 10:30:00,83.7,67.3,29.86,NW,315,5.0,6.0,58,0.00,,,0.00,meteohub,2013-09-08 17:30:00,
2013-09-08 10:35:00,82.0,67.6,29.86,West,270,8.0,8.0,62,0.00,,,0.00,meteohub,2013-09-08 17:35:00,
2013-09-08 10:40:00,81.3,67.5,29.85,West,270,8.0,8.0,63,0.00,,,0.00,meteohub,2013-09-08 17:40:00,
2013-09-08 10:45:00,81.5,67.6,29.85,NW,315,4.0,8.0,63,0.00,,,0.00,meteohub,2013-09-08 17:45:00,
2013-09-08 10:50:00,81.7,67.8,29.85,NW,315,4.0,8.0,63,0.00,,,0.00,meteohub,2013-09-08 17:50:00,
2013-09-08 10:55:00,82.2,67.8,29.85,NW,315,2.0,8.0,62,0.00,,,0.00,meteohub,2013-09-08 17:55:00,
2013-09-08 11:00:00,82.9,67.1,29.85,NW,315,8.0,8.0,59,0.00,,,0.00,meteohub,2013-09-08 18:00:00,
2013-09-08 11:05:00,82.8,66.9,29.85,NW,315,5.0,8.0,59,0.00,,,0.00,meteohub,2013-09-08 18:05:00,
2013-09-08 11:10:00,81.9,66.6,29.85,NW,315,7.0,9.0,60,0.00,,,0.00,meteohub,2013-09-08 18:10:00,
2013-09-08 11:15:00,81.5,66.7,29.84,NW,315,9.0,9.0,61,0.00,,,0.00,meteohub,2013-09-08 18:15:00,
2013-09-08 11:20:00,81.3,67.1,29.85,West,270,8.0,9.0,62,0.00,,,0.00,meteohub,2013-09-08 18:20:00,
2013-09-08 11:25:00,81.1,66.9,29.85,NW,315,9.0,9.0,62,0.00,,,0.00,meteohub,2013-09-08 18:25:00,
2013-09-08 11:30:00,81.5,66.7,29.85,WNW,293,6.0,9.0,61,0.00,,,0.00,meteohub,2013-09-08 18:30:00,
2013-09-08 11:35:00,81.5,66.7,29.84,West,270,6.0,9.0,61,0.00,,,0.00,meteohub,2013-09-08 18:35:00,
2013-09-08 11:40:00,81.0,66.7,29.84,West,270,8.0,9.0,62,0.00,,,0.00,meteohub,2013-09-08 18:40:00,
2013-09-08 11:46:00,81.0,67.1,29.84,West,270,3.0,8.0,63,0.00,,,0.00,meteohub,2013-09-08 18:46:00,
2013-09-08 11:51:00,80.8,66.6,29.84,West,270,8.0,10.0,62,0.00,,,0.00,meteohub,2013-09-08 18:51:00,
2013-09-08 11:56:00,80.2,66.6,29.84,West,270,7.0,10.0,63,0.00,,,0.00,meteohub,2013-09-08 18:56:00,
2013-09-08 12:01:00,79.9,66.6,29.84,NW,315,8.0,11.0,64,0.00,,,0.00,meteohub,2013-09-08 19:01:00,
2013-09-08 12:06:00,80.1,66.4,29.84,West,270,12.0,12.0,63,0.00,,,0.00,meteohub,2013-09-08 19:06:00,
2013-09-08 12:11:00,79.9,66.6,29.84,NW,315,8.0,12.0,64,0.00,,,0.00,meteohub,2013-09-08 19:11:00,
2013-09-08 12:16:00,79.7,66.0,29.84,NW,315,11.0,12.0,63,0.00,,,0.00,meteohub,2013-09-08 19:16:00,
2013-09-08 12:21:00,79.7,66.4,29.84,West,270,7.0,12.0,64,0.00,,,0.00,meteohub,2013-09-08 19:21:00,
2013-09-08 12:26:00,79.9,66.2,29.83,NW,315,7.0,11.0,63,0.00,,,0.00,meteohub,2013-09-08 19:26:00,
2013-09-08 12:31:00,80.4,65.7,29.83,West,270,5.0,11.0,61,0.00,,,0.00,meteohub,2013-09-08 19:31:00,
2013-09-08 12:36:00,81.7,65.5,29.83,WNW,293,7.0,11.0,58,0.00,,,0.00,meteohub,2013-09-08 19:36:00,
2013-09-08 12:41:00,81.9,65.7,29.83,West,270,6.0,9.0,58,0.00,,,0.00,meteohub,2013-09-08 19:41:00,
2013-09-08 12:46:00,81.9,65.1,29.83,NW,315,11.0,11.0,57,0.00,,,0.00,meteohub,2013-09-08 19:46:00,
2013-09-08 12:51:00,81.9,65.1,29.83,West,270,8.0,11.0,57,0.00,,,0.00,meteohub,2013-09-08 19:51:00,
2013-09-08 12:56:00,82.2,64.4,29.83,NW,315,11.0,11.0,55,0.00,,,0.00,meteohub,2013-09-08 19:56:00,
2013-09-08 13:01:00,82.0,64.8,29.83,WNW,293,6.0,11.0,56,0.00,,,0.00,meteohub,2013-09-08 20:01:00,
2013-09-08 13:06:00,82.6,64.8,29.83,NW,315,8.0,11.0,55,0.00,,,0.00,meteohub,2013-09-08 20:06:00,
2013-09-08 13:11:00,82.6,64.8,29.83,NW,315,8.0,11.0,55,0.00,,,0.00,meteohub,2013-09-08 20:11:00,
2013-09-08 13:16:00,82.4,65.1,29.82,West,270,7.0,10.0,56,0.00,,,0.00,meteohub,2013-09-08 20:16:00,
2013-09-08 13:21:00,82.6,64.8,29.82,WNW,293,9.0,10.0,55,0.00,,,0.00,meteohub,2013-09-08 20:21:00,
2013-09-08 13:26:00,82.0,65.3,29.82,West,270,11.0,11.0,57,0.00,,,0.00,meteohub,2013-09-08 20:26:00,
2013-09-08 13:31:00,81.3,65.1,29.82,West,270,8.0,11.0,58,0.00,,,0.00,meteohub,2013-09-08 20:31:00,
2013-09-08 13:36:00,81.3,65.1,29.81,West,270,8.0,11.0,58,0.00,,,0.00,meteohub,2013-09-08 20:36:00,
2013-09-08 13:41:00,80.6,64.9,29.81,West,270,10.0,11.0,59,0.00,,,0.00,meteohub,2013-09-08 20:41:00,
2013-09-08 13:46:00,80.6,64.9,29.81,NW,315,9.0,11.0,59,0.00,,,0.00,meteohub,2013-09-08 20:46:00,
2013-09-08 13:51:00,80.6,65.8,29.81,West,270,8.0,11.0,61,0.00,,,0.00,meteohub,2013-09-08 20:51:00,
2013-09-08 13:56:00,80.1,65.8,29.81,West,270,9.0,12.0,62,0.00,,,0.00,meteohub,2013-09-08 20:56:00,
2013-09-08 14:01:00,79.2,65.5,29.81,NW,315,8.0,12.0,63,0.00,,,0.00,meteohub,2013-09-08 21:01:00,
2013-09-08 14:06:00,78.4,66.2,29.81,NW,315,7.0,12.0,66,0.00,,,0.00,meteohub,2013-09-08 21:06:00,
2013-09-08 14:11:00,79.7,66.0,29.81,West,270,7.0,11.0,63,0.00,,,0.00,meteohub,2013-09-08 21:11:00,
2013-09-08 14:16:00,80.6,64.9,29.81,WNW,293,10.0,11.0,59,0.00,,,0.00,meteohub,2013-09-08 21:16:00,
2013-09-08 14:21:00,80.4,65.3,29.80,NW,315,11.0,11.0,60,0.00,,,0.00,meteohub,2013-09-08 21:21:00,
2013-09-08 14:26:00,80.6,65.5,29.80,West,270,9.0,11.0,60,0.00,,,0.00,meteohub,2013-09-08 21:26:00,
2013-09-08 14:31:00,80.4,65.7,29.80,West,270,11.0,11.0,61,0.00,,,0.00,meteohub,2013-09-08 21:31:00,
2013-09-08 14:36:00,80.4,65.7,29.79,WNW,293,9.0,11.0,61,0.00,,,0.00,meteohub,2013-09-08 21:36:00,
2013-09-08 14:41:00,80.2,64.0,29.79,NW,315,11.0,12.0,58,0.00,,,0.00,meteohub,2013-09-08 21:41:00,
2013-09-08 14:46:00,80.2,63.7,29.79,NW,315,8.0,12.0,57,0.00,,,0.00,meteohub,2013-09-08 21:46:00,
2013-09-08 14:51:00,80.6,64.9,29.79,NW,315,8.0,12.0,59,0.00,,,0.00,meteohub,2013-09-08 21:51:00,
2013-09-08 14:56:00,81.0,65.3,29.79,WNW,293,7.0,12.0,59,0.00,,,0.00,meteohub,2013-09-08 21:56:00,
2013-09-08 15:01:00,80.4,64.2,29.79,West,270,13.0,13.0,58,0.00,,,0.00,meteohub,2013-09-08 22:01:00,
2013-09-08 15:06:00,80.2,64.6,29.78,WNW,293,11.0,13.0,59,0.00,,,0.00,meteohub,2013-09-08 22:06:00,
2013-09-08 15:11:00,79.7,63.7,29.78,NW,315,11.0,13.0,58,0.00,,,0.00,meteohub,2013-09-08 22:11:00,
2013-09-08 15:16:00,79.9,63.3,29.78,West,270,11.0,13.0,57,0.00,,,0.00,meteohub,2013-09-08 22:16:00,
2013-09-08 15:21:00,80.1,63.5,29.78,NW,315,8.0,11.0,57,0.00,,,0.00,meteohub,2013-09-08 22:21:00,
2013-09-08 15:26:00,80.4,63.9,29.78,North,0,10.0,11.0,57,0.00,,,0.00,meteohub,2013-09-08 22:26:00,
2013-09-08 15:31:00,80.4,63.9,29.78,NW,315,8.0,11.0,57,0.00,,,0.00,meteohub,2013-09-08 22:31:00,
2013-09-08 15:36:00,80.6,63.5,29.77,NW,315,9.0,11.0,56,0.00,,,0.00,meteohub,2013-09-08 22:36:00,
2013-09-08 15:41:00,80.6,64.4,29.77,WNW,293,9.0,11.0,58,0.00,,,0.00,meteohub,2013-09-08 22:41:00,
2013-09-08 15:46:00,80.6,64.0,29.78,NW,315,9.0,12.0,57,0.00,,,0.00,meteohub,2013-09-08 22:46:00,
2013-09-08 15:51:00,80.8,64.0,29.77,NW,315,8.0,12.0,57,0.00,,,0.00,meteohub,2013-09-08 22:51:00,
2013-09-08 15:57:00,80.1,63.9,29.77,NW,315,11.0,12.0,58,0.00,,,0.00,meteohub,2013-09-08 22:57:00,
2013-09-08 16:02:00,79.5,64.4,29.77,West,270,9.0,12.0,60,0.00,,,0.00,meteohub,2013-09-08 23:02:00,
2013-09-08 16:07:00,79.9,64.8,29.76,West,270,11.0,12.0,60,0.00,,,0.00,meteohub,2013-09-08 23:07:00,
2013-09-08 16:12:00,80.2,64.6,29.76,NW,315,11.0,12.0,59,0.00,,,0.00,meteohub,2013-09-08 23:12:00,
2013-09-08 16:17:00,79.5,64.9,29.76,West,270,10.0,11.0,61,0.00,,,0.00,meteohub,2013-09-08 23:17:00,
2013-09-08 16:22:00,79.3,65.1,29.76,NW,315,9.0,11.0,62,0.00,,,0.00,meteohub,2013-09-08 23:22:00,
2013-09-08 16:27:00,79.5,64.9,29.76,NW,315,11.0,11.0,61,0.00,,,0.00,meteohub,2013-09-08 23:27:00,
2013-09-08 16:32:00,79.9,65.3,29.75,NW,315,8.0,11.0,61,0.00,,,0.00,meteohub,2013-09-08 23:32:00,
2013-09-08 16:37:00,80.2,66.0,29.75,NW,315,5.0,11.0,62,0.00,,,0.00,meteohub,2013-09-08 23:37:00,
2013-09-08 16:42:00,80.2,65.5,29.75,NW,315,10.0,11.0,61,0.00,,,0.00,meteohub,2013-09-08 23:42:00,
2013-09-08 16:47:00,79.2,65.8,29.75,NW,315,5.0,10.0,64,0.00,,,0.00,meteohub,2013-09-08 23:47:00,
2013-09-08 16:52:00,78.6,65.8,29.75,NW,315,7.0,11.0,65,0.00,,,0.00,meteohub,2013-09-08 23:52:00,
2013-09-08 16:57:00,78.4,66.6,29.75,West,270,5.0,11.0,67,0.00,,,0.00,meteohub,2013-09-08 23:57:00,
2013-09-08 17:02:00,78.3,66.0,29.75,NW,315,8.0,11.0,66,0.00,,,0.00,meteohub,2013-09-09 00:02:00,
2013-09-08 17:07:00,77.9,66.0,29.75,West,270,9.0,11.0,67,0.00,,,0.00,meteohub,2013-09-09 00:07:00,
2013-09-08 17:12:00,77.4,66.0,29.75,NW,315,7.0,11.0,68,0.00,,,0.00,meteohub,2013-09-09 00:12:00,
2013-09-08 17:17:00,78.3,66.0,29.74,NW,315,8.0,11.0,66,0.00,,,0.00,meteohub,2013-09-09 00:17:00,
2013-09-08 17:22:00,78.3,66.0,29.75,West,270,8.0,11.0,66,0.00,,,0.00,meteohub,2013-09-09 00:22:00,
2013-09-08 17:27:00,78.3,66.4,29.75,WNW,293,6.0,10.0,67,0.00,,,0.00,meteohub,2013-09-09 00:27:00,
2013-09-08 17:32:00,78.6,66.4,29.75,WNW,293,8.0,9.0,66,0.00,,,0.00,meteohub,2013-09-09 00:32:00,
2013-09-08 17:37:00,78.6,65.8,29.75,NW,315,7.0,8.0,65,0.00,,,0.00,meteohub,2013-09-09 00:37:00,
2013-09-08 17:42:00,78.3,66.0,29.75,NW,315,8.0,8.0,66,0.00,,,0.00,meteohub,2013-09-09 00:42:00,
2013-09-08 17:47:00,78.3,66.0,29.75,NW,315,7.0,9.0,66,0.00,,,0.00,meteohub,2013-09-09 00:47:00,
2013-09-08 17:51:00,78.1,65.8,29.75,NW,315,7.0,9.0,66,0.00,,,0.00,meteohub,2013-09-09 00:51:00,
2013-09-08 17:57:00,78.3,66.0,29.75,West,270,6.0,9.0,66,0.00,,,0.00,meteohub,2013-09-09 00:57:00,
2013-09-08 18:02:00,78.4,66.2,29.75,NW,315,3.0,8.0,66,0.00,,,0.00,meteohub,2013-09-09 01:02:00,
2013-09-08 18:07:00,78.8,64.8,29.75,North,0,3.0,8.0,62,0.00,,,0.00,meteohub,2013-09-09 01:07:00,
2013-09-08 18:12:00,78.8,64.2,29.75,NE,45,5.0,8.0,61,0.00,,,0.00,meteohub,2013-09-09 01:12:00,
2013-09-08 18:17:00,78.6,63.5,29.75,NE,45,6.0,6.0,60,0.00,,,0.00,meteohub,2013-09-09 01:17:00,
2013-09-08 18:22:00,78.3,63.7,29.75,North,0,4.0,6.0,61,0.00,,,0.00,meteohub,2013-09-09 01:22:00,
2013-09-08 18:27:00,77.4,63.9,29.75,North,0,4.0,7.0,63,0.00,,,0.00,meteohub,2013-09-09 01:27:00,
2013-09-08 18:32:00,76.1,63.5,29.76,North,0,4.0,7.0,65,0.00,,,0.00,meteohub,2013-09-09 01:32:00,
2013-09-08 18:37:00,75.6,63.9,29.75,NNE,23,5.0,7.0,67,0.00,,,0.00,meteohub,2013-09-09 01:37:00,
2013-09-08 18:42:00,74.8,63.5,29.76,NE,45,4.0,7.0,68,0.00,,,0.00,meteohub,2013-09-09 01:42:00,
2013-09-08 18:47:00,74.1,63.3,29.76,North,0,4.0,7.0,69,0.00,,,0.00,meteohub,2013-09-09 01:47:00,
2013-09-08 18:52:00,73.6,62.8,29.76,North,0,3.0,7.0,69,0.00,,,0.00,meteohub,2013-09-09 01:52:00,
2013-09-08 18:57:00,73.2,62.8,29.76,North,0,4.0,6.0,70,0.00,,,0.00,meteohub,2013-09-09 01:57:00,
2013-09-08 19:02:00,73.0,63.1,29.76,North,0,3.0,8.0,71,0.00,,,0.00,meteohub,2013-09-09 02:02:00,
2013-09-08 19:07:00,72.7,63.1,29.76,NNE,23,4.0,8.0,72,0.00,,,0.00,meteohub,2013-09-09 02:07:00,
2013-09-08 19:12:00,72.3,62.8,29.77,North,0,2.0,6.0,72,0.00,,,0.00,meteohub,2013-09-09 02:12:00,
2013-09-08 19:17:00,72.1,61.9,29.76,NNE,23,2.0,4.0,70,0.00,,,0.00,meteohub,2013-09-09 02:17:00,
2013-09-08 19:22:00,71.8,61.9,29.76,North,0,2.0,4.0,71,0.00,,,0.00,meteohub,2013-09-09 02:22:00,
2013-09-08 19:27:00,71.6,62.1,29.77,North,0,5.0,5.0,72,0.00,,,0.00,meteohub,2013-09-09 02:27:00,
2013-09-08 19:32:00,71.2,61.7,29.77,North,0,4.0,5.0,72,0.00,,,0.00,meteohub,2013-09-09 02:32:00,
2013-09-08 19:37:00,71.1,61.5,29.77,NNE,23,3.0,5.0,72,0.00,,,0.00,meteohub,2013-09-09 02:37:00,
2013-09-08 19:42:00,70.7,60.8,29.77,North,0,4.0,6.0,71,0.00,,,0.00,meteohub,2013-09-09 02:42:00,
2013-09-08 19:47:00,70.3,60.8,29.77,NE,45,4.0,6.0,72,0.00,,,0.00,meteohub,2013-09-09 02:47:00,
2013-09-08 19:52:00,70.2,61.2,29.78,North,0,4.0,6.0,73,0.00,,,0.00,meteohub,2013-09-09 02:52:00,
2013-09-08 19:57:00,70.0,61.3,29.78,NE,45,4.0,4.0,74,0.00,,,0.00,meteohub,2013-09-09 02:57:00,
2013-09-08 20:02:00,69.8,61.2,29.78,NNE,23,3.0,5.0,74,0.00,,,0.00,meteohub,2013-09-09 03:02:00,
2013-09-08 20:07:00,69.6,61.0,29.77,North,0,4.0,5.0,74,0.00,,,0.00,meteohub,2013-09-09 03:07:00,
2013-09-08 20:12:00,69.3,61.0,29.78,North,0,2.0,5.0,75,0.00,,,0.00,meteohub,2013-09-09 03:12:00,
2013-09-08 20:17:00,69.1,60.4,29.78,NE,45,6.0,6.0,74,0.00,,,0.00,meteohub,2013-09-09 03:17:00,
2013-09-08 20:22:00,69.1,60.1,29.79,North,0,3.0,6.0,73,0.00,,,0.00,meteohub,2013-09-09 03:22:00,
2013-09-08 20:27:00,68.9,59.9,29.78,North,0,2.0,6.0,73,0.00,,,0.00,meteohub,2013-09-09 03:27:00,
2013-09-08 20:32:00,68.7,60.4,29.79,North,0,2.0,6.0,75,0.00,,,0.00,meteohub,2013-09-09 03:32:00,
2013-09-08 20:37:00,68.7,60.4,29.79,NE,45,4.0,6.0,75,0.00,,,0.00,meteohub,2013-09-09 03:37:00,
2013-09-08 20:42:00,68.5,59.9,29.78,North,0,5.0,6.0,74,0.00,,,0.00,meteohub,2013-09-09 03:42:00,
2013-09-08 20:47:00,68.4,59.7,29.78,North,0,1.0,5.0,74,0.00,,,0.00,meteohub,2013-09-09 03:47:00,
2013-09-08 20:52:00,68.2,59.9,29.78,NNE,23,3.0,5.0,75,0.00,,,0.00,meteohub,2013-09-09 03:52:00,
2013-09-08 20:57:00,68.2,60.3,29.78,North,0,2.0,5.0,76,0.00,,,0.00,meteohub,2013-09-09 03:57:00,
2013-09-08 21:01:00,68.0,60.1,29.79,NNE,23,4.0,4.0,76,0.00,,,0.00,meteohub,2013-09-09 04:01:00,
2013-09-08 21:03:00,67.8,60.3,29.79,NNE,23,2.0,4.0,77,0.00,,,0.00,meteohub,2013-09-09 04:03:00,
2013-09-08 21:08:00,67.8,60.3,29.79,NNE,23,3.0,4.0,77,0.00,,,0.00,meteohub,2013-09-09 04:08:00,
2013-09-08 21:13:00,67.6,60.6,29.79,NNE,23,2.0,4.0,78,0.00,,,0.00,meteohub,2013-09-09 04:13:00,
2013-09-08 21:18:00,67.5,60.4,29.79,NNE,23,2.0,4.0,78,0.00,,,0.00,meteohub,2013-09-09 04:18:00,
2013-09-08 21:23:00,67.3,60.3,29.79,NNE,23,3.0,3.0,78,0.00,,,0.00,meteohub,2013-09-09 04:23:00,
2013-09-08 21:28:00,67.1,60.4,29.79,NNE,23,2.0,3.0,79,0.00,,,0.00,meteohub,2013-09-09 04:28:00,
2013-09-08 21:33:00,67.1,60.8,29.79,NNE,23,2.0,4.0,80,0.00,,,0.00,meteohub,2013-09-09 04:33:00,
2013-09-08 21:38:00,66.7,60.1,29.79,NNE,23,0.0,4.0,79,0.00,,,0.00,meteohub,2013-09-09 04:38:00,
2013-09-08 21:43:00,66.7,60.8,29.79,NNE,23,2.0,4.0,81,0.00,,,0.00,meteohub,2013-09-09 04:43:00,
2013-09-08 21:48:00,66.6,60.6,29.79,NNE,23,2.0,4.0,81,0.00,,,0.00,meteohub,2013-09-09 04:48:00,
2013-09-08 21:53:00,66.7,61.0,29.80,NNE,23,2.0,4.0,82,0.00,,,0.00,meteohub,2013-09-09 04:53:00,
2013-09-08 21:58:00,66.7,61.3,29.80,North,0,4.0,4.0,83,0.00,,,0.00,meteohub,2013-09-09 04:58:00,
2013-09-08 22:03:00,66.7,62.1,29.79,North,0,4.0,4.0,85,0.00,,,0.00,meteohub,2013-09-09 05:03:00,
2013-09-08 22:09:00,66.7,62.8,29.79,North,0,3.0,4.0,87,0.00,,,0.00,meteohub,2013-09-09 05:09:00,
2013-09-08 22:14:00,66.7,62.8,29.79,North,0,2.0,4.0,87,0.00,,,0.00,meteohub,2013-09-09 05:14:00,
2013-09-08 22:19:00,66.6,62.6,29.80,North,0,1.0,4.0,87,0.00,,,0.00,meteohub,2013-09-09 05:19:00,
2013-09-08 22:24:00,66.4,63.0,29.80,NNE,23,2.0,4.0,89,0.00,,,0.00,meteohub,2013-09-09 05:24:00,
2013-09-08 22:29:00,66.2,62.8,29.80,NNE,23,2.0,4.0,89,0.00,,,0.00,meteohub,2013-09-09 05:29:00,
2013-09-08 22:34:00,66.0,62.6,29.79,NNE,23,2.0,4.0,89,0.00,,,0.00,meteohub,2013-09-09 05:34:00,
2013-09-08 22:39:00,65.8,62.8,29.80,NNE,23,2.0,4.0,90,0.00,,,0.00,meteohub,2013-09-09 05:39:00,
2013-09-08 22:44:00,65.8,62.8,29.80,NNE,23,1.0,3.0,90,0.00,,,0.00,meteohub,2013-09-09 05:44:00,
2013-09-08 22:49:00,65.5,62.8,29.80,NNE,23,3.0,3.0,91,0.00,,,0.00,meteohub,2013-09-09 05:49:00,
2013-09-08 22:54:00,65.5,62.8,29.80,NNE,23,2.0,3.0,91,0.00,,,0.00,meteohub,2013-09-09 05:54:00,
2013-09-08 22:59:00,65.3,62.6,29.80,NNE,23,0.0,3.0,91,0.00,,,0.00,meteohub,2013-09-09 05:59:00,
2013-09-08 23:04:00,65.1,62.4,29.81,NNE,23,2.0,3.0,91,0.00,,,0.00,meteohub,2013-09-09 06:04:00,
2013-09-08 23:09:00,65.1,62.4,29.80,NNE,23,2.0,3.0,91,0.00,,,0.00,meteohub,2013-09-09 06:09:00,
2013-09-08 23:14:00,65.1,62.8,29.80,NNE,23,2.0,2.0,92,0.00,,,0.00,meteohub,2013-09-09 06:14:00,
2013-09-08 23:19:00,65.1,62.8,29.80,NNE,23,2.0,4.0,92,0.00,,,0.00,meteohub,2013-09-09 06:19:00,
2013-09-08 23:24:00,64.9,62.6,29.79,NNE,23,0.0,4.0,92,0.00,,,0.00,meteohub,2013-09-09 06:24:00,
2013-09-08 23:29:00,65.1,62.8,29.79,NNE,23,0.0,2.0,92,0.00,,,0.00,meteohub,2013-09-09 06:29:00,
2013-09-08 23:34:00,64.9,62.6,29.79,NNE,23,1.0,3.0,92,0.00,,,0.00,meteohub,2013-09-09 06:34:00,
2013-09-08 23:39:00,64.9,62.6,29.79,NNE,23,2.0,3.0,92,0.00,,,0.00,meteohub,2013-09-09 06:39:00,
2013-09-08 23:44:00,64.9,62.6,29.80,NE,45,3.0,3.0,92,0.00,,,0.00,meteohub,2013-09-09 06:44:00,
2013-09-08 23:49:00,64.8,62.1,29.80,NE,45,0.0,2.0,91,0.00,,,0.00,meteohub,2013-09-09 06:49:00,
2013-09-08 23:54:00,64.6,62.2,29.80,NE,45,2.0,4.0,92,0.00,,,0.00,meteohub,2013-09-09 06:54:00,
2013-09-08 23:59:00,64.6,62.2,29.80,NE,45,0.0,4.0,92,0.00,,,0.00,meteohub,2013-09-09 06:59:00,